Time;durP1;ratioP1;P1;durP2;ratioP2;P2;SDS_P1;SDS_P2;PMS_P1;PMS_P2;Temp;Humidity;BMP_temperature;BMP_pressure;BME280_temperature;BME280_humidity;BME280_pressure;Samples;Min_cycle;Max_cycle;Signal;HPM_P1;HPM_P2
2022/07/06 00:01:54;;;;;;;11.80;7.60;;;;;;;;;;5057021;28;20283;-58
2022/07/06 00:04:22;;;;;;;8.90;7.72;;;;;;;;;;5056965;28;20200;-57
2022/07/06 00:06:49;;;;;;;9.30;7.72;;;;;;;;;;5056366;28;20235;-56
2022/07/06 00:09:16;;;;;;;12.80;8.07;;;;;;;;;;5088822;28;20204;-57
2022/07/06 00:11:43;;;;;;;10.23;7.82;;;;;;;;;;5056621;28;20234;-56
2022/07/06 00:14:10;;;;;;;14.25;7.85;;;;;;;;;;5055690;28;20215;-58
2022/07/06 00:16:37;;;;;;;8.13;7.30;;;;;;;;;;5056409;28;20228;-58
2022/07/06 00:19:04;;;;;;;14.20;7.50;;;;;;;;;;5056365;28;20195;-55
2022/07/06 00:21:31;;;;;;;8.95;6.95;;;;;;;;;;5056685;28;20657;-52
2022/07/06 00:23:58;;;;;;;10.32;5.85;;;;;;;;;;5056936;28;20215;-54
2022/07/06 00:26:26;;;;;;;8.20;5.85;;;;;;;;;;5056330;28;20208;-52
2022/07/06 00:28:53;;;;;;;8.68;5.57;;;;;;;;;;5056815;28;20664;-52
2022/07/06 00:31:20;;;;;;;7.93;5.85;;;;;;;;;;5055982;28;20298;-50
2022/07/06 00:33:47;;;;;;;8.15;5.65;;;;;;;;;;5054796;28;20200;-51
2022/07/06 00:36:14;;;;;;;10.82;5.90;;;;;;;;;;5055019;28;20679;-51
2022/07/06 00:38:41;;;;;;;6.47;5.63;;;;;;;;;;5055163;28;20279;-58
2022/07/06 00:41:09;;;;;;;14.30;6.40;;;;;;;;;;5056514;28;20218;-52
2022/07/06 00:43:55;;;;;;;13.55;6.55;;;;;;;;;;5055946;28;20211;-56
2022/07/06 00:46:27;;;;;;;12.00;6.35;;;;;;;;;;5055171;28;20204;-50
2022/07/06 00:48:55;;;;;;;13.88;6.50;;;;;;;;;;5056262;28;20234;-52
2022/07/06 00:51:26;;;;;;;13.05;7.00;;;;;;;;;;5055182;28;20200;-50
2022/07/06 00:53:54;;;;;;;11.57;6.80;;;;;;;;;;5055503;28;20207;-52
2022/07/06 00:56:22;;;;;;;11.35;6.85;;;;;;;;;;5055793;28;20304;-51
2022/07/06 00:58:48;;;;;;;13.18;6.60;;;;;;;;;;5054675;28;20624;-55
2022/07/06 01:01:16;;;;;;;10.80;6.72;;;;;;;;;;5038184;28;20621;-55
2022/07/06 01:03:43;;;;;;;10.43;6.35;;;;;;;;;;5055705;28;20632;-51
2022/07/06 01:06:10;;;;;;;8.93;6.50;;;;;;;;;;5055170;28;20535;-56
2022/07/06 01:08:38;;;;;;;12.02;7.43;;;;;;;;;;5055048;28;20242;-51
2022/07/06 01:11:06;;;;;;;8.65;6.22;;;;;;;;;;5054499;28;20204;-55
2022/07/06 01:13:33;;;;;;;9.95;5.65;;;;;;;;;;5054590;28;20203;-52
2022/07/06 01:16:00;;;;;;;6.28;5.13;;;;;;;;;;5054751;28;20228;-53
2022/07/06 01:18:27;;;;;;;5.85;3.83;;;;;;;;;;5054475;28;20582;-50
2022/07/06 01:21:12;;;;;;;3.72;3.20;;;;;;;;;;5055237;28;20293;-54
2022/07/06 01:23:46;;;;;;;5.00;4.50;;;;;;;;;;5054497;28;20195;-58
2022/07/06 01:26:16;;;;;;;5.13;4.10;;;;;;;;;;5055301;28;20199;-57
2022/07/06 01:28:43;;;;;;;6.88;3.83;;;;;;;;;;5054588;28;20208;-57
2022/07/06 01:31:24;;;;;;;4.25;3.85;;;;;;;;;;5055681;28;20578;-57
2022/07/06 01:33:53;;;;;;;3.80;3.45;;;;;;;;;;5054690;28;20200;-59
2022/07/06 01:36:20;;;;;;;4.82;3.40;;;;;;;;;;5054177;28;20273;-58
2022/07/06 01:38:54;;;;;;;4.57;3.65;;;;;;;;;;5054895;28;20266;-59
2022/07/06 01:41:22;;;;;;;4.18;3.65;;;;;;;;;;5054288;28;20230;-58
2022/07/06 01:43:49;;;;;;;5.70;3.90;;;;;;;;;;5054800;28;20658;-56
2022/07/06 01:46:17;;;;;;;6.35;4.10;;;;;;;;;;5054082;28;20251;-55
2022/07/06 01:48:46;;;;;;;7.22;4.00;;;;;;;;;;5054087;28;20226;-56
2022/07/06 01:51:13;;;;;;;7.78;4.93;;;;;;;;;;5054986;28;20200;-55
2022/07/06 01:53:42;;;;;;;15.98;5.07;;;;;;;;;;5054273;28;20270;-58
2022/07/06 01:56:10;;;;;;;7.07;4.40;;;;;;;;;;5053810;28;20301;-57
2022/07/06 01:58:38;;;;;;;10.02;4.35;;;;;;;;;;5053988;28;20215;-52
2022/07/06 02:01:09;;;;;;;8.48;3.50;;;;;;;;;;5054035;28;20227;-56
2022/07/06 02:03:37;;;;;;;5.40;3.60;;;;;;;;;;5054519;28;20211;-56
2022/07/06 02:06:05;;;;;;;6.03;3.20;;;;;;;;;;5053785;28;20208;-51
2022/07/06 02:08:33;;;;;;;3.10;2.80;;;;;;;;;;5053888;28;20196;-58
2022/07/06 02:11:02;;;;;;;3.33;2.65;;;;;;;;;;5053571;28;20207;-56
2022/07/06 02:13:30;;;;;;;5.10;2.22;;;;;;;;;;5053635;28;20204;-53
2022/07/06 02:15:57;;;;;;;4.22;1.80;;;;;;;;;;5053437;28;20256;-53
2022/07/06 02:18:25;;;;;;;3.58;1.88;;;;;;;;;;5053593;28;20273;-53
2022/07/06 02:20:53;;;;;;;2.75;1.42;;;;;;;;;;5054379;28;20255;-53
2022/07/06 02:23:19;;;;;;;1.83;1.13;;;;;;;;;;5053326;28;20589;-58
2022/07/06 02:25:47;;;;;;;2.88;1.10;;;;;;;;;;5053707;28;20257;-55
2022/07/06 02:28:14;;;;;;;1.08;0.90;;;;;;;;;;5053481;28;20200;-48
2022/07/06 02:30:41;;;;;;;1.38;1.00;;;;;;;;;;5053529;28;20265;-54
2022/07/06 02:33:10;;;;;;;2.67;1.05;;;;;;;;;;5053482;28;20269;-54
2022/07/06 02:35:41;;;;;;;2.13;0.80;;;;;;;;;;5053404;28;20196;-53
2022/07/06 02:38:10;;;;;;;1.77;0.93;;;;;;;;;;5055097;28;20190;-53
2022/07/06 02:40:38;;;;;;;3.22;0.88;;;;;;;;;;5057935;28;20269;-51
2022/07/06 02:43:06;;;;;;;1.70;0.95;;;;;;;;;;5056979;28;20196;-54
2022/07/06 02:45:34;;;;;;;1.70;1.00;;;;;;;;;;5057282;28;20212;-51
2022/07/06 02:48:02;;;;;;;1.17;0.90;;;;;;;;;;5057154;28;20215;-57
2022/07/06 02:50:30;;;;;;;0.90;0.73;;;;;;;;;;5057037;28;20204;-57
2022/07/06 02:52:58;;;;;;;1.40;0.60;;;;;;;;;;5056775;28;20250;-51
2022/07/06 02:55:26;;;;;;;0.82;0.63;;;;;;;;;;5057002;28;20226;-51
2022/07/06 02:57:53;;;;;;;0.50;0.50;;;;;;;;;;5056962;28;20305;-55
2022/07/06 03:00:21;;;;;;;2.60;0.55;;;;;;;;;;5056939;28;20211;-54
2022/07/06 03:02:50;;;;;;;0.60;0.60;;;;;;;;;;5056593;28;20208;-54
2022/07/06 04:22:13;;;;;;;2.90;1.30;;;;;;;;;;5111800;27;20581;-48
2022/07/06 04:24:40;;;;;;;1.50;1.40;;;;;;;;;;5111486;28;20330;-47
2022/07/06 04:27:07;;;;;;;2.22;0.90;;;;;;;;;;5110309;28;20728;-48
2022/07/06 04:29:34;;;;;;;1.48;1.23;;;;;;;;;;5111178;27;20682;-48
2022/07/06 04:32:02;;;;;;;1.70;1.60;;;;;;;;;;5110365;28;20675;-53
2022/07/06 04:34:29;;;;;;;2.10;1.30;;;;;;;;;;5109742;27;20273;-49
2022/07/06 04:36:56;;;;;;;3.20;1.30;;;;;;;;;;5110680;28;20230;-49
2022/07/06 04:39:23;;;;;;;1.90;1.35;;;;;;;;;;5110553;27;20229;-52
2022/07/06 04:41:50;;;;;;;1.95;1.40;;;;;;;;;;5110621;28;20260;-58
2022/07/06 04:44:18;;;;;;;4.47;1.70;;;;;;;;;;5110711;28;20242;-48
2022/07/06 04:46:46;;;;;;;2.35;1.52;;;;;;;;;;5110273;28;20229;-51
2022/07/06 04:49:13;;;;;;;2.88;1.90;;;;;;;;;;5110596;28;20237;-49
2022/07/06 04:51:40;;;;;;;1.40;1.20;;;;;;;;;;5110053;27;20230;-58
2022/07/06 04:54:08;;;;;;;1.52;1.33;;;;;;;;;;5106395;28;20279;-56
2022/07/06 04:56:35;;;;;;;2.20;1.38;;;;;;;;;;5110533;28;20229;-50
2022/07/06 04:59:02;;;;;;;1.75;1.15;;;;;;;;;;5109636;28;20664;-54
2022/07/06 05:01:29;;;;;;;1.45;1.02;;;;;;;;;;5108529;28;20229;-53
2022/07/06 05:03:57;;;;;;;3.17;1.38;;;;;;;;;;5108560;28;20218;-55
2022/07/06 05:06:24;;;;;;;1.92;1.40;;;;;;;;;;5108640;28;20222;-55
2022/07/06 05:08:52;;;;;;;1.67;1.10;;;;;;;;;;5108359;28;20660;-54
2022/07/06 05:11:20;;;;;;;3.30;1.30;;;;;;;;;;5108177;28;20312;-49
2022/07/06 05:13:48;;;;;;;1.33;1.20;;;;;;;;;;5105530;28;20226;-49
2022/07/06 05:16:16;;;;;;;1.33;1.02;;;;;;;;;;5083477;28;20226;-46
2022/07/06 05:18:43;;;;;;;1.80;1.17;;;;;;;;;;5108116;28;20241;-56
2022/07/06 05:21:11;;;;;;;1.05;0.90;;;;;;;;;;5105331;27;20226;-50
2022/07/06 05:23:38;;;;;;;2.55;0.95;;;;;;;;;;5093688;28;20231;-55
2022/07/06 05:26:06;;;;;;;0.80;0.80;;;;;;;;;;5094961;28;20250;-52
2022/07/06 05:28:33;;;;;;;1.50;0.93;;;;;;;;;;5092356;28;20215;-57
2022/07/06 05:31:05;;;;;;;2.13;1.20;;;;;;;;;;5095425;28;20605;-57
2022/07/06 05:33:33;;;;;;;0.80;0.68;;;;;;;;;;5095333;28;20226;-59
2022/07/06 05:36:01;;;;;;;1.27;0.98;;;;;;;;;;5095238;28;20222;-57
2022/07/06 05:38:29;;;;;;;1.30;0.80;;;;;;;;;;5093962;28;20279;-57
2022/07/06 05:40:57;;;;;;;1.73;1.20;;;;;;;;;;5094437;28;20275;-58
2022/07/06 05:43:24;;;;;;;2.05;1.10;;;;;;;;;;5092853;28;20676;-58
2022/07/06 05:45:53;;;;;;;3.63;1.23;;;;;;;;;;5094469;28;20223;-55
2022/07/06 05:51:09;;;;;;;2.60;1.20;;;;;;;;;;5109050;28;20547;-58
2022/07/06 05:53:36;;;;;;;1.35;1.25;;;;;;;;;;5094084;28;20206;-57
2022/07/06 05:56:03;;;;;;;1.10;1.00;;;;;;;;;;5092988;28;20668;-58
2022/07/06 05:58:32;;;;;;;1.23;1.13;;;;;;;;;;5092786;28;20294;-53
2022/07/06 06:00:59;;;;;;;1.50;1.25;;;;;;;;;;5093806;28;20250;-59
2022/07/06 06:03:26;;;;;;;0.80;0.80;;;;;;;;;;5093967;28;20219;-58
2022/07/06 06:05:53;;;;;;;1.25;1.10;;;;;;;;;;5093314;28;20688;-54
2022/07/06 06:08:22;;;;;;;1.45;1.25;;;;;;;;;;5091560;28;20219;-56
2022/07/06 06:10:52;;;;;;;1.80;1.13;;;;;;;;;;5093660;28;20230;-55
2022/07/06 06:13:22;;;;;;;1.55;1.20;;;;;;;;;;5093918;28;20710;-51
2022/07/06 06:15:49;;;;;;;1.75;1.08;;;;;;;;;;5094524;28;20214;-58
2022/07/06 06:18:18;;;;;;;2.88;1.15;;;;;;;;;;5093534;28;20226;-56
2022/07/06 06:20:46;;;;;;;1.30;0.82;;;;;;;;;;5094515;28;20635;-57
2022/07/06 06:23:13;;;;;;;2.00;1.00;;;;;;;;;;5094258;28;20246;-58
2022/07/06 06:25:40;;;;;;;2.60;0.90;;;;;;;;;;5094514;28;20285;-58
2022/07/06 06:28:09;;;;;;;1.77;0.90;;;;;;;;;;5093962;28;20283;-58
2022/07/06 06:30:37;;;;;;;1.33;1.00;;;;;;;;;;5094405;28;20237;-57
2022/07/06 06:33:17;;;;;;;0.73;0.73;;;;;;;;;;5087723;28;20222;-57
2022/07/06 06:35:49;;;;;;;3.08;1.35;;;;;;;;;;5092794;28;20744;-55
2022/07/06 06:38:17;;;;;;;1.85;0.85;;;;;;;;;;5092978;28;20222;-57
2022/07/06 06:40:44;;;;;;;0.68;0.68;;;;;;;;;;5093464;28;20235;-51
2022/07/06 06:43:11;;;;;;;1.00;0.82;;;;;;;;;;5094792;28;20214;-53
2022/07/06 06:46:04;;;;;;;1.13;0.73;;;;;;;;;;5090773;28;20216;-57
2022/07/06 06:48:32;;;;;;;1.30;1.00;;;;;;;;;;5089244;28;20238;-58
2022/07/06 06:50:59;;;;;;;1.10;1.00;;;;;;;;;;5094828;28;20570;-59
2022/07/06 06:53:25;;;;;;;4.78;0.80;;;;;;;;;;5095255;28;20222;-58
2022/07/06 06:55:53;;;;;;;0.80;0.80;;;;;;;;;;5095312;28;20227;-59
2022/07/06 06:58:19;;;;;;;0.90;0.77;;;;;;;;;;5095255;28;20215;-58
2022/07/06 07:00:47;;;;;;;1.33;0.90;;;;;;;;;;5095223;28;20248;-58
2022/07/06 07:03:14;;;;;;;0.93;0.82;;;;;;;;;;5093589;28;20222;-58
2022/07/06 07:05:41;;;;;;;1.52;1.20;;;;;;;;;;5087917;28;20640;-58
2022/07/06 07:08:08;;;;;;;0.70;0.70;;;;;;;;;;5074361;28;20234;-58
2022/07/06 07:10:35;;;;;;;0.85;0.85;;;;;;;;;;5088583;28;20243;-59
2022/07/06 07:13:02;;;;;;;0.98;0.90;;;;;;;;;;5094557;28;20238;-59
2022/07/06 07:15:29;;;;;;;2.05;1.10;;;;;;;;;;5093890;28;20221;-54
2022/07/06 07:17:56;;;;;;;3.10;0.70;;;;;;;;;;5093207;28;20219;-55
2022/07/06 07:20:29;;;;;;;2.35;1.10;;;;;;;;;;5093999;28;20241;-54
2022/07/06 07:22:57;;;;;;;1.23;1.08;;;;;;;;;;5093432;28;20239;-56
2022/07/06 07:25:24;;;;;;;1.10;1.00;;;;;;;;;;5093458;28;20646;-52
2022/07/06 07:27:51;;;;;;;2.90;1.00;;;;;;;;;;5094469;28;20241;-61
2022/07/06 07:30:18;;;;;;;1.48;1.08;;;;;;;;;;5091942;28;20551;-57
2022/07/06 07:32:46;;;;;;;0.90;0.90;;;;;;;;;;5093169;28;20550;-56
2022/07/06 07:35:13;;;;;;;2.45;1.10;;;;;;;;;;5093784;28;20570;-56
2022/07/06 07:37:40;;;;;;;1.83;1.20;;;;;;;;;;5094518;28;20222;-57
2022/07/06 07:40:07;;;;;;;1.08;1.02;;;;;;;;;;5094151;28;20226;-57
2022/07/06 07:42:34;;;;;;;1.73;1.25;;;;;;;;;;5094628;28;20226;-56
2022/07/06 07:45:01;;;;;;;1.30;1.20;;;;;;;;;;5093173;28;20222;-56
2022/07/06 07:47:28;;;;;;;1.58;1.20;;;;;;;;;;5093928;28;20238;-56
2022/07/06 07:49:55;;;;;;;2.78;1.38;;;;;;;;;;5093921;28;20720;-56
2022/07/06 07:52:22;;;;;;;4.05;1.30;;;;;;;;;;5094512;28;20235;-56
2022/07/06 07:54:49;;;;;;;1.83;1.40;;;;;;;;;;5093832;28;20234;-57
2022/07/06 07:57:36;;;;;;;1.38;1.27;;;;;;;;;;5094256;28;20225;-57
2022/07/06 08:00:04;;;;;;;2.45;1.30;;;;;;;;;;5094150;28;20280;-58
2022/07/06 08:02:37;;;;;;;2.03;1.50;;;;;;;;;;5094131;28;20518;-57
2022/07/06 08:05:04;;;;;;;2.15;1.45;;;;;;;;;;5090331;28;20242;-57
2022/07/06 08:07:32;;;;;;;4.05;1.67;;;;;;;;;;5075306;28;20234;-56
2022/07/06 08:09:59;;;;;;;1.50;1.20;;;;;;;;;;5093059;28;20299;-57
2022/07/06 08:12:26;;;;;;;2.08;1.40;;;;;;;;;;5092809;28;20539;-57
2022/07/06 08:14:53;;;;;;;4.28;1.52;;;;;;;;;;5091668;27;20222;-56
2022/07/06 08:17:20;;;;;;;2.03;1.60;;;;;;;;;;5092166;28;20223;-55
2022/07/06 08:19:47;;;;;;;1.75;1.30;;;;;;;;;;5089912;28;20550;-57
2022/07/06 08:22:14;;;;;;;1.20;1.10;;;;;;;;;;5092378;28;20229;-51
2022/07/06 08:24:41;;;;;;;1.70;1.60;;;;;;;;;;5092901;28;20222;-48
2022/07/06 08:27:08;;;;;;;3.63;1.33;;;;;;;;;;5092468;28;20225;-56
2022/07/06 08:29:35;;;;;;;1.38;1.27;;;;;;;;;;5093175;28;20597;-47
2022/07/06 08:32:03;;;;;;;1.95;1.40;;;;;;;;;;5092895;28;20707;-54
2022/07/06 08:34:44;;;;;;;2.15;1.10;;;;;;;;;;5092167;28;20241;-48
2022/07/06 08:37:11;;;;;;;1.38;1.20;;;;;;;;;;5093612;28;20233;-47
2022/07/06 08:39:38;;;;;;;1.92;1.02;;;;;;;;;;5093570;28;20276;-51
2022/07/06 08:42:07;;;;;;;4.45;1.58;;;;;;;;;;5093384;28;21591;-50
2022/07/06 08:44:36;;;;;;;2.53;1.13;;;;;;;;;;5089137;28;20218;-48
2022/07/06 08:47:06;;;;;;;2.08;1.20;;;;;;;;;;5089227;28;20211;-59
2022/07/06 08:49:36;;;;;;;3.47;1.27;;;;;;;;;;5089580;28;20231;-47
2022/07/06 08:52:04;;;;;;;1.52;1.20;;;;;;;;;;5091393;28;20656;-51
2022/07/06 08:54:31;;;;;;;2.30;1.10;;;;;;;;;;5090896;28;20608;-48
2022/07/06 08:56:59;;;;;;;2.95;1.10;;;;;;;;;;5093559;28;20223;-52
2022/07/06 08:59:27;;;;;;;1.02;0.95;;;;;;;;;;5096566;28;20223;-47
2022/07/06 09:01:55;;;;;;;1.05;1.00;;;;;;;;;;5096636;28;20240;-48
2022/07/06 09:04:23;;;;;;;2.05;0.77;;;;;;;;;;5096176;28;20557;-48
2022/07/06 09:06:50;;;;;;;1.60;1.00;;;;;;;;;;5094982;28;20564;-53
2022/07/06 09:09:23;;;;;;;1.88;0.73;;;;;;;;;;5094374;28;20202;-53
2022/07/06 09:11:50;;;;;;;3.25;0.90;;;;;;;;;;5094424;28;20223;-57
2022/07/06 09:14:18;;;;;;;0.93;0.82;;;;;;;;;;5094741;28;20264;-51
2022/07/06 09:16:49;;;;;;;3.05;0.85;;;;;;;;;;5095337;28;20240;-47
2022/07/06 09:19:17;;;;;;;1.50;0.90;;;;;;;;;;5059344;28;20201;-49
2022/07/06 09:21:43;;;;;;;0.90;0.90;;;;;;;;;;5094577;28;20230;-52
2022/07/06 09:24:12;;;;;;;2.10;0.80;;;;;;;;;;5094960;28;20191;-50
2022/07/06 09:26:41;;;;;;;1.85;1.05;;;;;;;;;;5094769;28;20195;-52
2022/07/06 09:29:08;;;;;;;0.70;0.70;;;;;;;;;;5094683;28;20195;-51
2022/07/06 09:31:35;;;;;;;0.90;0.73;;;;;;;;;;5095081;28;20225;-51
2022/07/06 09:34:11;;;;;;;0.80;0.80;;;;;;;;;;5093472;28;20629;-54
2022/07/06 09:36:43;;;;;;;1.42;0.75;;;;;;;;;;5093974;28;20214;-51
2022/07/06 09:39:25;;;;;;;2.17;0.90;;;;;;;;;;5092581;28;20534;-51
2022/07/06 09:41:54;;;;;;;2.70;0.90;;;;;;;;;;5089381;28;20510;-54
2022/07/06 09:44:31;;;;;;;1.75;0.80;;;;;;;;;;5094614;28;20186;-50
2022/07/06 09:47:05;;;;;;;1.77;0.68;;;;;;;;;;5095906;28;20213;-51
2022/07/06 09:49:32;;;;;;;1.15;0.80;;;;;;;;;;5094756;28;20217;-53
2022/07/06 09:52:02;;;;;;;2.92;1.20;;;;;;;;;;5095335;28;20226;-55
2022/07/06 09:54:29;;;;;;;2.10;1.17;;;;;;;;;;5095431;28;20650;-52
2022/07/06 09:56:56;;;;;;;1.20;1.02;;;;;;;;;;5095411;28;20583;-53
2022/07/06 09:59:34;;;;;;;2.33;1.40;;;;;;;;;;5095851;28;20199;-56
2022/07/06 10:02:06;;;;;;;4.40;1.10;;;;;;;;;;5096929;28;20235;-54
2022/07/06 10:04:34;;;;;;;2.47;0.93;;;;;;;;;;5095659;28;20187;-54
2022/07/06 10:07:02;;;;;;;1.33;0.70;;;;;;;;;;5096356;28;20640;-50
2022/07/06 10:09:29;;;;;;;3.65;0.80;;;;;;;;;;5095223;28;20248;-53
2022/07/06 10:12:00;;;;;;;0.60;0.60;;;;;;;;;;5092592;28;20223;-56
2022/07/06 10:14:29;;;;;;;1.27;0.80;;;;;;;;;;5095299;28;20195;-55
2022/07/06 10:16:58;;;;;;;1.15;0.80;;;;;;;;;;5095067;28;20191;-55
2022/07/06 10:19:26;;;;;;;3.47;1.10;;;;;;;;;;5093818;28;20190;-54
2022/07/06 10:21:53;;;;;;;4.35;1.10;;;;;;;;;;5086565;28;20287;-49
2022/07/06 10:24:21;;;;;;;2.85;1.00;;;;;;;;;;5095333;28;20747;-51
2022/07/06 10:26:48;;;;;;;2.83;0.90;;;;;;;;;;5095386;28;20729;-53
2022/07/06 10:29:15;;;;;;;1.20;1.00;;;;;;;;;;5094935;28;20229;-50
2022/07/06 10:31:45;;;;;;;1.15;0.88;;;;;;;;;;5095580;28;20605;-51
2022/07/06 10:34:13;;;;;;;1.42;0.90;;;;;;;;;;5094686;28;20230;-50
2022/07/06 10:36:42;;;;;;;1.10;0.90;;;;;;;;;;5093852;28;20223;-50
2022/07/06 10:41:56;;;;;;;1.33;1.08;;;;;;;;;;5095515;28;20716;-52
2022/07/06 10:44:25;;;;;;;2.25;1.00;;;;;;;;;;5095559;28;20550;-54
2022/07/06 10:46:54;;;;;;;5.40;1.40;;;;;;;;;;5094241;28;20271;-49
2022/07/06 10:49:23;;;;;;;3.88;1.33;;;;;;;;;;5094444;28;20230;-53
2022/07/06 10:52:10;;;;;;;2.03;1.35;;;;;;;;;;5095247;28;20563;-52
2022/07/06 10:54:40;;;;;;;1.42;1.33;;;;;;;;;;5095615;28;20226;-53
2022/07/06 10:57:10;;;;;;;2.47;1.50;;;;;;;;;;5095329;28;20260;-51
2022/07/06 10:59:38;;;;;;;4.20;1.40;;;;;;;;;;5093868;28;20234;-55
2022/07/06 11:02:18;;;;;;;3.30;1.25;;;;;;;;;;5092724;28;20241;-51
2022/07/06 11:04:47;;;;;;;1.48;1.20;;;;;;;;;;5091899;28;20295;-51
2022/07/06 11:07:18;;;;;;;1.85;1.20;;;;;;;;;;5093377;28;20230;-54
2022/07/06 11:09:56;;;;;;;1.50;0.90;;;;;;;;;;5093469;28;20564;-50
2022/07/06 11:12:24;;;;;;;3.28;0.90;;;;;;;;;;5094763;28;20230;-54
2022/07/06 11:14:52;;;;;;;2.75;0.77;;;;;;;;;;5094958;28;20244;-52
2022/07/06 11:17:19;;;;;;;1.58;0.80;;;;;;;;;;5094269;28;20223;-49
2022/07/06 11:19:56;;;;;;;2.75;0.90;;;;;;;;;;5093267;28;20223;-51
2022/07/06 11:22:24;;;;;;;1.85;0.90;;;;;;;;;;5094726;28;20313;-49
2022/07/06 11:24:52;;;;;;;1.65;1.00;;;;;;;;;;5094637;28;20219;-47
2022/07/06 11:27:22;;;;;;;2.42;1.13;;;;;;;;;;5093365;28;20249;-54
2022/07/06 11:29:49;;;;;;;1.00;0.90;;;;;;;;;;5094565;28;20218;-48
2022/07/06 11:32:23;;;;;;;0.93;0.90;;;;;;;;;;5093970;28;20218;-48
2022/07/06 11:34:50;;;;;;;4.45;1.20;;;;;;;;;;5093567;28;20222;-54
2022/07/06 11:37:18;;;;;;;4.38;1.52;;;;;;;;;;5093884;28;20214;-51
2022/07/06 11:39:46;;;;;;;4.97;1.02;;;;;;;;;;5093711;28;20230;-52
2022/07/06 11:42:16;;;;;;;3.33;0.90;;;;;;;;;;5090325;28;20254;-51
2022/07/06 11:44:44;;;;;;;2.63;1.10;;;;;;;;;;5092704;28;20226;-56
2022/07/06 11:47:12;;;;;;;2.50;1.20;;;;;;;;;;5092727;28;20566;-56
2022/07/06 11:49:40;;;;;;;1.20;1.02;;;;;;;;;;5092055;28;20284;-49
2022/07/06 11:52:11;;;;;;;3.25;1.10;;;;;;;;;;5089975;28;20214;-52
2022/07/06 11:54:38;;;;;;;2.10;0.95;;;;;;;;;;5093035;28;20222;-50
2022/07/06 11:57:08;;;;;;;3.33;1.08;;;;;;;;;;5092773;28;20210;-53
2022/07/06 11:59:37;;;;;;;2.55;1.15;;;;;;;;;;5092978;28;20230;-48
2022/07/06 12:02:11;;;;;;;2.60;0.93;;;;;;;;;;5092351;28;20227;-57
2022/07/06 12:04:44;;;;;;;1.85;1.08;;;;;;;;;;5090887;28;20222;-49
2022/07/06 12:07:15;;;;;;;5.78;1.10;;;;;;;;;;5089638;28;20241;-51
2022/07/06 12:09:44;;;;;;;1.88;1.00;;;;;;;;;;5092304;28;20230;-56
2022/07/06 12:12:12;;;;;;;4.20;1.10;;;;;;;;;;5092888;28;20222;-56
2022/07/06 12:14:41;;;;;;;1.17;0.90;;;;;;;;;;5092714;28;20218;-56
2022/07/06 12:17:13;;;;;;;1.67;1.02;;;;;;;;;;5091802;28;20210;-57
2022/07/06 12:19:41;;;;;;;3.92;1.05;;;;;;;;;;5087385;28;20226;-57
2022/07/06 12:22:08;;;;;;;1.05;0.70;;;;;;;;;;5092126;28;20238;-56
2022/07/06 12:24:37;;;;;;;3.35;0.70;;;;;;;;;;5091593;28;20229;-51
2022/07/06 12:27:18;;;;;;;3.47;0.80;;;;;;;;;;5092272;28;20218;-48
2022/07/06 12:29:46;;;;;;;2.85;0.90;;;;;;;;;;5085013;28;20609;-48
2022/07/06 12:32:22;;;;;;;2.33;0.90;;;;;;;;;;5094122;28;20217;-55
2022/07/06 12:35:06;;;;;;;1.77;1.05;;;;;;;;;;5097611;28;20264;-51
2022/07/06 12:37:33;;;;;;;1.70;0.70;;;;;;;;;;5096624;28;20193;-50
2022/07/06 12:40:01;;;;;;;4.50;0.85;;;;;;;;;;5098055;28;20199;-49
2022/07/06 12:42:28;;;;;;;1.77;0.80;;;;;;;;;;5098697;28;20268;-47
2022/07/06 12:44:55;;;;;;;3.75;1.20;;;;;;;;;;5097256;28;20640;-48
2022/07/06 12:47:24;;;;;;;1.95;0.82;;;;;;;;;;5097745;28;20207;-50
2022/07/06 12:50:11;;;;;;;2.20;1.00;;;;;;;;;;5091179;28;20210;-53
2022/07/06 12:55:30;;;;;;;3.08;0.80;;;;;;;;;;5095514;28;20222;-52
2022/07/06 12:57:58;;;;;;;0.80;0.70;;;;;;;;;;5095516;28;20218;-51
2022/07/06 13:00:25;;;;;;;1.63;0.77;;;;;;;;;;5095545;28;20233;-54
2022/07/06 13:02:56;;;;;;;1.67;0.80;;;;;;;;;;5095485;28;20668;-47
2022/07/06 13:05:39;;;;;;;1.48;0.80;;;;;;;;;;5093844;28;20569;-53
2022/07/06 13:08:08;;;;;;;3.20;1.10;;;;;;;;;;5095945;28;20283;-52
2022/07/06 13:10:36;;;;;;;2.28;0.85;;;;;;;;;;5093445;28;20276;-50
2022/07/06 13:13:08;;;;;;;5.00;1.08;;;;;;;;;;5096705;28;20230;-49
2022/07/06 13:15:35;;;;;;;1.88;1.02;;;;;;;;;;5076979;28;20305;-48
2022/07/06 13:18:02;;;;;;;4.15;1.00;;;;;;;;;;5092862;28;20276;-46
2022/07/06 13:20:29;;;;;;;2.97;0.90;;;;;;;;;;5095895;28;20237;-50
2022/07/06 13:22:56;;;;;;;2.95;1.02;;;;;;;;;;5096465;28;20305;-47
2022/07/06 13:25:23;;;;;;;2.45;0.85;;;;;;;;;;5096623;28;20215;-50
2022/07/06 13:27:50;;;;;;;4.10;0.93;;;;;;;;;;5096806;28;20241;-53
2022/07/06 13:30:17;;;;;;;2.60;0.90;;;;;;;;;;5088215;28;20215;-51
2022/07/06 13:32:44;;;;;;;3.28;1.00;;;;;;;;;;5093718;28;20528;-55
2022/07/06 13:35:11;;;;;;;2.53;0.82;;;;;;;;;;5095939;28;20222;-50
2022/07/06 13:37:38;;;;;;;1.88;0.70;;;;;;;;;;5096239;28;20234;-53
2022/07/06 13:40:06;;;;;;;3.17;0.90;;;;;;;;;;5096344;28;20210;-53
2022/07/06 13:42:33;;;;;;;1.50;0.80;;;;;;;;;;5090221;28;20680;-56
2022/07/06 13:45:00;;;;;;;3.13;0.80;;;;;;;;;;5092970;28;20291;-56
2022/07/06 13:47:32;;;;;;;2.25;0.90;;;;;;;;;;5092896;28;20214;-52
2022/07/06 13:49:59;;;;;;;2.63;1.13;;;;;;;;;;5094665;28;20551;-52
2022/07/06 13:52:26;;;;;;;1.52;0.88;;;;;;;;;;5095323;28;20234;-54
2022/07/06 13:54:53;;;;;;;1.77;0.80;;;;;;;;;;5095363;28;20218;-55
2022/07/06 13:57:28;;;;;;;2.35;1.15;;;;;;;;;;5093377;28;20253;-56
2022/07/06 13:59:55;;;;;;;2.35;1.05;;;;;;;;;;5094933;28;20292;-56
2022/07/06 14:02:22;;;;;;;2.28;1.00;;;;;;;;;;5093897;28;20222;-58
2022/07/06 14:04:49;;;;;;;2.50;1.05;;;;;;;;;;5094324;28;20223;-56
2022/07/06 14:07:16;;;;;;;4.00;0.90;;;;;;;;;;5091257;28;20210;-57
2022/07/06 14:10:11;;;;;;;13.40;8.82;;;;;;;;;;5095408;28;20218;-57
2022/07/06 14:12:38;;;;;;;2.28;1.17;;;;;;;;;;5095250;28;20347;-59
2022/07/06 14:15:05;;;;;;;4.40;0.85;;;;;;;;;;5096006;28;20233;-59
2022/07/06 14:17:33;;;;;;;1.90;0.90;;;;;;;;;;5096086;28;20249;-53
2022/07/06 14:20:00;;;;;;;1.15;0.70;;;;;;;;;;5095099;28;20237;-56
2022/07/06 14:22:27;;;;;;;2.85;1.05;;;;;;;;;;5095758;28;20230;-55
2022/07/06 14:24:54;;;;;;;2.38;0.90;;;;;;;;;;5095860;28;20227;-59
2022/07/06 14:27:21;;;;;;;1.13;0.80;;;;;;;;;;5095631;28;20680;-50
2022/07/06 14:29:48;;;;;;;2.22;0.85;;;;;;;;;;5095770;28;20218;-56
2022/07/06 14:32:15;;;;;;;6.25;0.70;;;;;;;;;;5095634;28;20242;-52
2022/07/06 14:34:42;;;;;;;2.00;0.80;;;;;;;;;;5095080;28;20253;-57
2022/07/06 14:37:10;;;;;;;3.67;0.60;;;;;;;;;;5095498;28;20219;-56
2022/07/06 14:39:46;;;;;;;2.88;0.88;;;;;;;;;;5095484;28;20256;-49
2022/07/06 14:42:13;;;;;;;2.45;0.70;;;;;;;;;;5094693;28;20234;-57
2022/07/06 14:44:40;;;;;;;7.03;0.80;;;;;;;;;;5095496;28;20214;-54
2022/07/06 14:47:07;;;;;;;1.23;0.82;;;;;;;;;;5095371;28;20616;-59
2022/07/06 14:49:34;;;;;;;2.80;0.80;;;;;;;;;;5094562;28;20218;-59
2022/07/06 14:52:01;;;;;;;1.63;0.68;;;;;;;;;;5094852;28;20218;-48
2022/07/06 14:54:28;;;;;;;1.67;0.70;;;;;;;;;;5093423;28;20233;-48
2022/07/06 14:56:55;;;;;;;6.90;0.80;;;;;;;;;;5092371;28;20226;-47
2022/07/06 14:59:22;;;;;;;3.55;0.70;;;;;;;;;;5090442;28;20218;-57
2022/07/06 15:01:51;;;;;;;3.95;0.90;;;;;;;;;;5093521;28;20269;-58
2022/07/06 15:04:19;;;;;;;2.75;1.05;;;;;;;;;;5092834;28;20234;-58
2022/07/06 15:06:46;;;;;;;3.47;0.70;;;;;;;;;;5091879;28;20222;-53
2022/07/06 15:09:23;;;;;;;2.45;0.70;;;;;;;;;;5094221;28;20247;-51
2022/07/06 15:11:51;;;;;;;1.25;0.52;;;;;;;;;;5094302;28;20645;-49
2022/07/06 15:14:18;;;;;;;1.05;0.55;;;;;;;;;;5092339;28;20266;-53
2022/07/06 15:16:45;;;;;;;4.95;1.05;;;;;;;;;;5095115;28;20195;-53
2022/07/06 15:19:12;;;;;;;1.60;0.70;;;;;;;;;;5095460;28;20203;-51
2022/07/06 15:21:39;;;;;;;1.25;0.80;;;;;;;;;;5092967;28;20234;-54
2022/07/06 15:24:07;;;;;;;1.58;0.75;;;;;;;;;;5093844;28;20233;-58
2022/07/06 15:26:34;;;;;;;2.75;0.80;;;;;;;;;;5095169;28;20207;-58
2022/07/06 15:29:01;;;;;;;3.08;1.17;;;;;;;;;;5091274;28;20509;-60
2022/07/06 15:31:28;;;;;;;3.25;1.00;;;;;;;;;;5093568;28;20195;-59
2022/07/06 15:33:58;;;;;;;2.70;0.70;;;;;;;;;;5094849;28;20190;-59
2022/07/06 15:36:25;;;;;;;1.75;0.60;;;;;;;;;;5094606;28;20194;-59
2022/07/06 15:38:52;;;;;;;1.50;0.63;;;;;;;;;;5095083;28;20199;-58
2022/07/06 15:41:19;;;;;;;1.17;0.63;;;;;;;;;;5094738;28;20582;-57
2022/07/06 15:43:46;;;;;;;3.75;0.80;;;;;;;;;;5095059;28;20232;-52
2022/07/06 15:46:21;;;;;;;2.15;1.05;;;;;;;;;;5094960;28;20193;-58
2022/07/06 15:48:48;;;;;;;3.17;1.02;;;;;;;;;;5095037;28;20285;-58
2022/07/06 15:51:15;;;;;;;1.30;0.57;;;;;;;;;;5095256;28;20210;-58
2022/07/06 15:53:45;;;;;;;4.75;1.02;;;;;;;;;;5094906;28;20598;-58
2022/07/06 15:56:15;;;;;;;2.40;1.17;;;;;;;;;;5094929;28;20271;-57
2022/07/06 15:58:42;;;;;;;2.80;0.80;;;;;;;;;;5094605;28;20193;-56
2022/07/06 16:01:10;;;;;;;1.70;0.73;;;;;;;;;;5094679;28;20210;-58
2022/07/06 16:03:37;;;;;;;2.50;1.02;;;;;;;;;;5094879;28;20229;-58
2022/07/06 16:06:06;;;;;;;2.92;1.00;;;;;;;;;;5087187;28;20276;-58
2022/07/06 16:08:39;;;;;;;3.08;0.93;;;;;;;;;;5075705;28;20199;-58
2022/07/06 16:11:16;;;;;;;2.85;1.10;;;;;;;;;;5090711;28;20206;-59
2022/07/06 16:13:44;;;;;;;1.73;0.70;;;;;;;;;;5091960;28;20538;-58
2022/07/06 16:16:17;;;;;;;1.52;0.80;;;;;;;;;;5092781;28;20187;-58
2022/07/06 16:18:44;;;;;;;1.95;0.77;;;;;;;;;;5092726;28;20203;-58